Dumas, TX

12:29 AM CDT on April 30, 2017 (GMT -0500)
Moore County

Weather History for KDUX - January, 2014

Change the Weather History Date:

Saturday, January 25, 2014

  Actual Average (KDHT) Record (KDHT)
Temperature  
Mean Temperature 44 °F -  
Max Temperature 60 °F 48 °F 76 °F (1953)
Min Temperature 29 °F 21 °F 2 °F (1957)
Degree Days  
Heating Degree Days 20    
Moisture  
Dew Point 22 °F    
Average Humidity 47    
Maximum Humidity 68    
Minimum Humidity 27    
Precipitation  
Precipitation 0.00 in - - ()
Sea Level Pressure  
Sea Level Pressure 30.11 in    
Wind  
Wind Speed 9 mph (South)    
Max Wind Speed 14 mph    
Max Gust Speed 17 mph    
Visibility 10 miles    
Events      
Averages and records for this station are not official NWS values.
T = Trace of Precipitation, MM = Missing Value Source: NWS Daily Summary

Daily Weather History Graph

Daily Weather History Graph

Search for Another Location

Airport or City:

Trip Planner

Search our weather history database for the weather conditions in past years. The results will help you decide how hot, cold, wet, or windy it might be!

Date:

Astronomy

Jan. 25, 2014 Rise Set
Actual Time 7:53 AM CST 6:08 PM CST
Civil Twilight 7:25 AM CST 6:35 PM CST
Nautical Twilight 6:54 AM CST 7:06 PM CST
Astronomical Twilight 6:24 AM CST 7:36 PM CST
Moon 2:28 AM CST (1/25) 1:09 PM CST (1/25)
Length of Visible Light 11h 09m
Length of Day
10h 14m
Waning Crescent, 34% of the Moon is Illuminated
Jan 25
Waning Crescent
Jan 30
New
Feb 6
First Quarter
Feb 14
Full
Feb 22
Last Quarter

Hourly Weather History & Observations

Time (CST) Temp. Windchill Dew Point Humidity Pressure Visibility Wind Dir Wind Speed Gust Speed Precip Events Conditions
12:15 AM 34.7 °F 26.4 °F 16.3 °F 47% 30.19 in 10.0 mi WSW 11.5 mph - N/A   Clear
12:35 AM 36.3 °F 27.5 °F 15.8 °F 43% 30.18 in 10.0 mi West 13.8 mph - N/A   Clear
12:55 AM 35.2 °F 27.6 °F 16.3 °F 46% 30.17 in 10.0 mi West 10.4 mph - N/A   Clear
1:15 AM 34.0 °F 26.0 °F 17.2 °F 50% 30.17 in 10.0 mi West 10.4 mph - N/A   Clear
1:35 AM 33.6 °F 25.6 °F 17.6 °F 52% 30.16 in 10.0 mi West 10.4 mph - N/A   Clear
1:55 AM 34.2 °F 26.8 °F 17.1 °F 50% 30.15 in 10.0 mi West 9.2 mph - N/A   Clear
2:15 AM 33.1 °F 25.5 °F 17.4 °F 53% 30.15 in 10.0 mi WSW 9.2 mph - N/A   Clear
2:35 AM 32.7 °F 25.0 °F 17.6 °F 54% 30.16 in 10.0 mi West 9.2 mph - N/A   Clear
2:55 AM 32.4 °F 24.0 °F 18.0 °F 55% 30.15 in 10.0 mi West 10.4 mph - N/A   Clear
3:15 AM 32.0 °F 24.8 °F 18.3 °F 57% 30.15 in 10.0 mi West 8.1 mph - N/A   Clear
3:35 AM 32.0 °F 23.0 °F 18.9 °F 58% 30.15 in 10.0 mi West 11.5 mph - N/A   Clear
3:55 AM 30.6 °F 20.7 °F 18.7 °F 61% 30.15 in 10.0 mi West 12.7 mph - N/A   Clear
4:15 AM 30.7 °F 22.0 °F 18.9 °F 61% 30.15 in 10.0 mi West 10.4 mph - N/A   Clear
4:35 AM 30.2 °F 21.9 °F 19.0 °F 63% 30.15 in 10.0 mi West 9.2 mph - N/A   Clear
4:55 AM 30.4 °F 21.5 °F 19.2 °F 63% 30.15 in 10.0 mi West 10.4 mph - N/A   Clear
5:15 AM 29.7 °F 20.1 °F 19.4 °F 66% 30.16 in 10.0 mi WNW 11.5 mph - N/A   Clear
5:35 AM 29.5 °F 21.1 °F 19.9 °F 68% 30.16 in 10.0 mi WNW 9.2 mph - N/A   Clear
5:55 AM 29.8 °F 22.2 °F 19.4 °F 65% 30.16 in 10.0 mi WNW 8.1 mph - N/A   Clear
6:15 AM 31.8 °F 25.4 °F 19.0 °F 59% 30.16 in 10.0 mi NW 6.9 mph - N/A   Clear
6:35 AM 30.2 °F 22.6 °F 18.3 °F 61% 30.16 in 10.0 mi WNW 8.1 mph - N/A   Clear
6:55 AM 30.4 °F 22.9 °F 18.3 °F 61% 30.17 in 10.0 mi WNW 8.1 mph - N/A   Clear
7:15 AM 31.8 °F 24.6 °F 18.3 °F 57% 30.17 in 10.0 mi NW 8.1 mph - N/A   Clear
7:35 AM 31.1 °F 24.5 °F 18.5 °F 60% 30.19 in 10.0 mi NW 6.9 mph - N/A   Clear
7:55 AM 32.2 °F 26.7 °F 19.2 °F 59% 30.19 in 10.0 mi NW 5.8 mph - N/A   Clear
8:15 AM 32.0 °F 26.4 °F 18.5 °F 58% 30.19 in 10.0 mi NW 5.8 mph - N/A   Clear
8:35 AM 34.5 °F 27.9 °F 19.6 °F 54% 30.19 in 10.0 mi NW 8.1 mph - N/A   Clear
8:55 AM 36.7 °F 32.0 °F 21.9 °F 55% 30.19 in 10.0 mi NNW 5.8 mph - N/A   Clear
9:15 AM 39.0 °F 35.7 °F 23.0 °F 53% 30.20 in 10.0 mi NW 4.6 mph - N/A   Clear
9:35 AM 42.4 °F - 23.9 °F 48% 30.20 in 10.0 mi Calm Calm - N/A   Clear
9:55 AM 45.5 °F - 24.8 °F 44% 30.20 in 10.0 mi Calm Calm - N/A   Clear
10:15 AM 49.3 °F - 23.5 °F 36% 30.20 in 10.0 mi NNE 3.5 mph - N/A   Clear
10:35 AM 51.8 °F - 24.1 °F 34% 30.20 in 10.0 mi NE 3.5 mph - N/A   Clear
10:55 AM 53.1 °F - 25.2 °F 34% 30.21 in 10.0 mi ENE 5.8 mph - N/A   Clear
11:15 AM 55.9 °F - 26.4 °F 32% 30.21 in 10.0 mi ENE 6.9 mph - N/A   Clear
11:35 AM 57.2 °F - 25.5 °F 30% 30.20 in 10.0 mi NE 12.7 mph 17.3 mph N/A   Clear
11:55 AM 57.2 °F - 25.3 °F 29% 30.20 in 10.0 mi NE 10.4 mph - N/A   Clear
12:15 PM 57.6 °F - 26.1 °F 30% 30.19 in 10.0 mi ENE 11.5 mph 16.1 mph N/A   Clear
12:35 PM 58.3 °F - 26.1 °F 29% 30.18 in 10.0 mi ENE 10.4 mph - N/A   Clear
12:55 PM 58.6 °F - 25.9 °F 29% 30.16 in 10.0 mi ENE 6.9 mph - N/A   Clear
1:15 PM 58.5 °F - 25.7 °F 29% 30.15 in 10.0 mi ENE 9.2 mph 17.3 mph N/A   Clear
1:35 PM 59.0 °F - 25.9 °F 28% 30.14 in 10.0 mi East 10.4 mph - N/A   Clear
1:55 PM 58.8 °F - 25.5 °F 28% 30.12 in 10.0 mi East 9.2 mph - N/A   Clear
2:15 PM 59.4 °F - 25.7 °F 28% 30.11 in 10.0 mi ESE 6.9 mph - N/A   Clear
2:35 PM 59.5 °F - 25.5 °F 27% 30.10 in 10.0 mi East 6.9 mph - N/A   Clear
2:55 PM 59.2 °F - 25.3 °F 27% 30.08 in 10.0 mi ENE 5.8 mph - N/A   Clear
3:15 PM 60.1 °F - 25.7 °F 27% 30.07 in 10.0 mi ESE 9.2 mph - N/A   Clear
3:35 PM 60.4 °F - 25.7 °F 27% 30.07 in 10.0 mi ESE 4.6 mph - N/A   Clear
3:55 PM 60.1 °F - 25.9 °F 27% 30.07 in 10.0 mi ESE 8.1 mph - N/A   Clear
4:15 PM 58.5 °F - 25.5 °F 28% 30.06 in 10.0 mi SE 6.9 mph - N/A   Clear
4:35 PM 57.2 °F - 25.7 °F 30% 30.05 in 10.0 mi SSE 9.2 mph - N/A   Clear
4:55 PM 54.9 °F - 25.7 °F 32% 30.05 in 10.0 mi SE 6.9 mph - N/A   Clear
5:15 PM 52.2 °F - 26.2 °F 37% 30.04 in 10.0 mi SSE 5.8 mph - N/A   Clear
5:35 PM 51.3 °F - 26.1 °F 38% 30.04 in 10.0 mi SSE 5.8 mph - N/A   Clear
5:55 PM 49.6 °F - 25.7 °F 39% 30.03 in 10.0 mi SE 5.8 mph - N/A   Clear
6:15 PM 49.3 °F - 25.5 °F 40% 30.02 in 10.0 mi SE 5.8 mph - N/A   Clear
6:35 PM 46.8 °F - 24.6 °F 42% 30.02 in 10.0 mi SE 5.8 mph - N/A   Clear
6:55 PM 42.8 °F 39.3 °F 23.7 °F 47% 30.02 in 10.0 mi SE 5.8 mph - N/A   Clear
7:15 PM 43.5 °F 38.9 °F 23.7 °F 46% 30.01 in 10.0 mi SE 8.1 mph - N/A   Clear
7:35 PM 41.5 °F 36.4 °F 23.0 °F 48% 30.00 in 10.0 mi SE 8.1 mph - N/A   Clear
7:55 PM 39.7 °F 34.3 °F 22.6 °F 50% 30.00 in 10.0 mi SSE 8.1 mph - N/A   Clear
8:15 PM 37.2 °F 31.9 °F 21.9 °F 54% 29.98 in 10.0 mi SSE 6.9 mph - N/A   Clear
9:15 PM 37.0 °F 29.8 °F 23.2 °F 57% 29.96 in 10.0 mi South 10.4 mph - N/A   Clear
9:35 PM 37.8 °F 31.3 °F 23.5 °F 57% 29.95 in 10.0 mi South 9.2 mph - N/A   Clear
9:55 PM 38.8 °F 32.6 °F 23.0 °F 53% 29.95 in 10.0 mi South 9.2 mph - N/A   Clear
10:15 PM 36.1 °F 29.9 °F 21.7 °F 56% 29.95 in 10.0 mi South 8.1 mph - N/A   Clear
10:35 PM 34.2 °F 27.5 °F 20.7 °F 58% 29.93 in 10.0 mi South 8.1 mph - N/A   Clear
10:55 PM 33.8 °F 27.0 °F 19.4 °F 56% 29.93 in 10.0 mi South 8.1 mph - N/A   Clear
11:15 PM 32.0 °F 24.8 °F 18.7 °F 58% 29.91 in 10.0 mi South 8.1 mph - N/A   Clear
11:35 PM 31.6 °F 23.7 °F 18.7 °F 59% 29.90 in 10.0 mi South 9.2 mph - N/A   Clear
11:55 PM 30.9 °F 22.8 °F 18.5 °F 60% 29.89 in 10.0 mi South 9.2 mph - N/A   Clear